Horatio, South Carolina
Current Conditions -  °F | °C
As of 8:58 PM on Tuesday 21 Oct 2014 (Local Time) from KSSC Reporting Station
Clear Clear  
Wind Chill: 66°   Ceiling: Unl
Heat Index: 66°   Visibility: 10mi
Dew Point: 53°   Wind: 5mph
Humidity: 62%   Direction: 270°W
Pressure: 29.89"   Gusts: NA
Location:  34.02°N, 80.57°W
Report Text: KSSC 220058Z AUTO 27004KT 10SM CLR 19/12 A2989 RMK AO2 SLP122 T01890115 $
Loading
Personal Weather Stations






























Interactive Weather Map New forecast layout! Learn more

10-Day Weather Forecast

Advertisements
Track Severe Weather on mobile